sensor_id;sensor_type;location;lat;lon;timestamp;temperature;humidity
4856;DHT22;2442;48.676;7.986;2022-12-16T00:00:00;-2.10;99.90
4856;DHT22;2442;48.676;7.986;2022-12-16T00:02:27;-2.20;99.90
4856;DHT22;2442;48.676;7.986;2022-12-16T00:04:53;-2.20;99.90
4856;DHT22;2442;48.676;7.986;2022-12-16T00:07:22;-2.30;99.90
4856;DHT22;2442;48.676;7.986;2022-12-16T00:09:49;-2.30;99.90
4856;DHT22;2442;48.676;7.986;2022-12-16T00:12:17;-2.30;99.90
4856;DHT22;2442;48.676;7.986;2022-12-16T00:14:44;-2.40;99.90
4856;DHT22;2442;48.676;7.986;2022-12-16T00:17:10;-2.30;99.90
4856;DHT22;2442;48.676;7.986;2022-12-16T00:19:37;-2.40;99.90
4856;DHT22;2442;48.676;7.986;2022-12-16T00:22:04;-2.40;99.90
4856;DHT22;2442;48.676;7.986;2022-12-16T00:24:31;-2.30;99.90
4856;DHT22;2442;48.676;7.986;2022-12-16T00:26:58;-2.40;99.90
4856;DHT22;2442;48.676;7.986;2022-12-16T00:29:26;-2.30;99.90
4856;DHT22;2442;48.676;7.986;2022-12-16T00:31:53;-2.30;99.90
4856;DHT22;2442;48.676;7.986;2022-12-16T00:34:20;-2.30;99.90
4856;DHT22;2442;48.676;7.986;2022-12-16T00:36:47;-2.30;99.90
4856;DHT22;2442;48.676;7.986;2022-12-16T00:39:14;-2.30;99.90
4856;DHT22;2442;48.676;7.986;2022-12-16T00:41:40;-2.30;99.90
4856;DHT22;2442;48.676;7.986;2022-12-16T00:44:07;-2.30;99.90
4856;DHT22;2442;48.676;7.986;2022-12-16T00:46:36;-2.30;99.90
4856;DHT22;2442;48.676;7.986;2022-12-16T00:49:03;-2.40;99.90
4856;DHT22;2442;48.676;7.986;2022-12-16T00:51:29;-2.40;99.90
4856;DHT22;2442;48.676;7.986;2022-12-16T00:53:56;-2.40;99.90
4856;DHT22;2442;48.676;7.986;2022-12-16T00:56:23;-2.40;99.90
4856;DHT22;2442;48.676;7.986;2022-12-16T00:58:50;-2.40;99.90
4856;DHT22;2442;48.676;7.986;2022-12-16T01:01:17;-2.40;99.90
4856;DHT22;2442;48.676;7.986;2022-12-16T01:03:45;-2.40;99.90
4856;DHT22;2442;48.676;7.986;2022-12-16T01:06:14;-2.50;99.90
4856;DHT22;2442;48.676;7.986;2022-12-16T01:08:41;-2.50;99.90
4856;DHT22;2442;48.676;7.986;2022-12-16T01:11:13;-2.50;99.90
4856;DHT22;2442;48.676;7.986;2022-12-16T01:13:40;-2.50;99.90
4856;DHT22;2442;48.676;7.986;2022-12-16T01:16:07;-2.50;99.90
4856;DHT22;2442;48.676;7.986;2022-12-16T01:18:33;-2.40;99.90
4856;DHT22;2442;48.676;7.986;2022-12-16T01:21:03;-2.40;99.90
4856;DHT22;2442;48.676;7.986;2022-12-16T01:23:30;-2.40;99.90
4856;DHT22;2442;48.676;7.986;2022-12-16T01:25:59;-2.40;99.90
4856;DHT22;2442;48.676;7.986;2022-12-16T01:28:26;-2.40;99.90
4856;DHT22;2442;48.676;7.986;2022-12-16T01:30:58;-2.40;99.90
4856;DHT22;2442;48.676;7.986;2022-12-16T01:33:26;-2.40;99.90
4856;DHT22;2442;48.676;7.986;2022-12-16T01:35:58;-2.40;99.90
4856;DHT22;2442;48.676;7.986;2022-12-16T01:38:27;-2.40;99.90
4856;DHT22;2442;48.676;7.986;2022-12-16T01:40:54;-2.40;99.90
4856;DHT22;2442;48.676;7.986;2022-12-16T01:43:24;-2.40;99.90
4856;DHT22;2442;48.676;7.986;2022-12-16T01:45:53;-2.40;99.90
4856;DHT22;2442;48.676;7.986;2022-12-16T01:48:31;-2.40;99.90
4856;DHT22;2442;48.676;7.986;2022-12-16T01:51:04;-2.40;99.90
4856;DHT22;2442;48.676;7.986;2022-12-16T01:53:34;-2.40;99.90
4856;DHT22;2442;48.676;7.986;2022-12-16T01:56:03;-2.40;99.90
4856;DHT22;2442;48.676;7.986;2022-12-16T01:58:33;-2.40;99.90
4856;DHT22;2442;48.676;7.986;2022-12-16T02:01:00;-2.40;99.90
4856;DHT22;2442;48.676;7.986;2022-12-16T02:03:31;-2.50;99.90
4856;DHT22;2442;48.676;7.986;2022-12-16T02:06:00;-2.40;99.90
4856;DHT22;2442;48.676;7.986;2022-12-16T02:08:27;-2.40;99.90
4856;DHT22;2442;48.676;7.986;2022-12-16T02:11:17;-2.50;99.90
4856;DHT22;2442;48.676;7.986;2022-12-16T02:14:05;-2.40;99.90
4856;DHT22;2442;48.676;7.986;2022-12-16T02:16:40;-2.40;99.90
4856;DHT22;2442;48.676;7.986;2022-12-16T02:19:19;-2.40;99.90
4856;DHT22;2442;48.676;7.986;2022-12-16T02:21:57;-2.40;99.90
4856;DHT22;2442;48.676;7.986;2022-12-16T02:24:54;-2.40;99.90
4856;DHT22;2442;48.676;7.986;2022-12-16T02:27:44;-2.40;99.90
4856;DHT22;2442;48.676;7.986;2022-12-16T02:30:31;-2.40;99.90
4856;DHT22;2442;48.676;7.986;2022-12-16T02:33:11;-2.50;99.90
4856;DHT22;2442;48.676;7.986;2022-12-16T02:35:45;-2.40;99.90
4856;DHT22;2442;48.676;7.986;2022-12-16T02:38:21;-2.40;99.90
4856;DHT22;2442;48.676;7.986;2022-12-16T02:40:52;-2.40;99.90
4856;DHT22;2442;48.676;7.986;2022-12-16T02:43:32;-2.40;99.90
4856;DHT22;2442;48.676;7.986;2022-12-16T02:46:03;-2.40;99.90
4856;DHT22;2442;48.676;7.986;2022-12-16T02:48:30;-2.40;99.90
4856;DHT22;2442;48.676;7.986;2022-12-16T02:50:57;-2.40;99.90
4856;DHT22;2442;48.676;7.986;2022-12-16T02:53:24;-2.40;99.90
4856;DHT22;2442;48.676;7.986;2022-12-16T02:55:57;-2.40;99.90
4856;DHT22;2442;48.676;7.986;2022-12-16T02:58:29;-2.40;99.90
4856;DHT22;2442;48.676;7.986;2022-12-16T03:01:07;-2.40;99.90
4856;DHT22;2442;48.676;7.986;2022-12-16T03:03:43;-2.40;99.90
4856;DHT22;2442;48.676;7.986;2022-12-16T03:06:15;-2.40;99.90
4856;DHT22;2442;48.676;7.986;2022-12-16T03:08:46;-2.40;99.90
4856;DHT22;2442;48.676;7.986;2022-12-16T03:11:15;-2.40;99.90
4856;DHT22;2442;48.676;7.986;2022-12-16T03:13:45;-2.30;99.90
4856;DHT22;2442;48.676;7.986;2022-12-16T03:16:17;-2.40;99.90
4856;DHT22;2442;48.676;7.986;2022-12-16T03:18:48;-2.30;99.90
4856;DHT22;2442;48.676;7.986;2022-12-16T03:21:17;-2.30;99.90
4856;DHT22;2442;48.676;7.986;2022-12-16T03:23:49;-2.30;99.90
4856;DHT22;2442;48.676;7.986;2022-12-16T03:26:22;-2.30;99.90
4856;DHT22;2442;48.676;7.986;2022-12-16T03:28:53;-2.30;99.90
4856;DHT22;2442;48.676;7.986;2022-12-16T03:31:29;-2.30;99.90
4856;DHT22;2442;48.676;7.986;2022-12-16T03:34:03;-2.30;99.90
4856;DHT22;2442;48.676;7.986;2022-12-16T03:36:34;-2.30;99.90
4856;DHT22;2442;48.676;7.986;2022-12-16T03:39:03;-2.30;99.90
4856;DHT22;2442;48.676;7.986;2022-12-16T03:41:31;-2.30;99.90
4856;DHT22;2442;48.676;7.986;2022-12-16T03:43:59;-2.30;99.90
4856;DHT22;2442;48.676;7.986;2022-12-16T03:46:28;-2.30;99.90
4856;DHT22;2442;48.676;7.986;2022-12-16T03:48:54;-2.30;99.90
4856;DHT22;2442;48.676;7.986;2022-12-16T03:51:21;-2.30;99.90
4856;DHT22;2442;48.676;7.986;2022-12-16T03:53:48;-2.30;99.90
4856;DHT22;2442;48.676;7.986;2022-12-16T03:56:15;-2.30;99.90
4856;DHT22;2442;48.676;7.986;2022-12-16T03:58:42;-2.40;99.90
4856;DHT22;2442;48.676;7.986;2022-12-16T04:01:12;-2.30;99.90
4856;DHT22;2442;48.676;7.986;2022-12-16T04:03:41;-2.30;99.90
4856;DHT22;2442;48.676;7.986;2022-12-16T04:06:08;-2.30;99.90
4856;DHT22;2442;48.676;7.986;2022-12-16T04:08:34;-2.30;99.90
4856;DHT22;2442;48.676;7.986;2022-12-16T04:11:01;-2.40;99.90
4856;DHT22;2442;48.676;7.986;2022-12-16T04:13:45;-2.40;99.90
4856;DHT22;2442;48.676;7.986;2022-12-16T04:16:30;-2.50;99.90
4856;DHT22;2442;48.676;7.986;2022-12-16T04:19:21;-2.50;99.90
4856;DHT22;2442;48.676;7.986;2022-12-16T04:22:11;-2.50;99.90
4856;DHT22;2442;48.676;7.986;2022-12-16T04:24:59;-2.50;99.90
4856;DHT22;2442;48.676;7.986;2022-12-16T04:27:26;-2.50;99.90
4856;DHT22;2442;48.676;7.986;2022-12-16T04:29:54;-2.50;99.90
4856;DHT22;2442;48.676;7.986;2022-12-16T04:32:38;-2.50;99.90
4856;DHT22;2442;48.676;7.986;2022-12-16T04:35:25;-2.50;99.90
4856;DHT22;2442;48.676;7.986;2022-12-16T04:38:09;-2.50;99.90
4856;DHT22;2442;48.676;7.986;2022-12-16T04:40:53;-2.50;99.90
4856;DHT22;2442;48.676;7.986;2022-12-16T04:43:38;-2.50;99.90
4856;DHT22;2442;48.676;7.986;2022-12-16T04:46:22;-2.60;99.90
4856;DHT22;2442;48.676;7.986;2022-12-16T04:49:07;-2.50;99.90
4856;DHT22;2442;48.676;7.986;2022-12-16T04:51:52;-2.60;99.90
4856;DHT22;2442;48.676;7.986;2022-12-16T04:54:36;-2.60;99.90
4856;DHT22;2442;48.676;7.986;2022-12-16T04:57:21;-2.60;99.90
4856;DHT22;2442;48.676;7.986;2022-12-16T05:00:07;-2.60;99.90
4856;DHT22;2442;48.676;7.986;2022-12-16T05:02:51;-2.70;99.90
4856;DHT22;2442;48.676;7.986;2022-12-16T05:05:36;-2.70;99.90
4856;DHT22;2442;48.676;7.986;2022-12-16T05:08:21;-2.70;99.90
4856;DHT22;2442;48.676;7.986;2022-12-16T05:11:06;-2.70;99.90
4856;DHT22;2442;48.676;7.986;2022-12-16T05:13:50;-2.70;99.90
4856;DHT22;2442;48.676;7.986;2022-12-16T05:16:34;-2.80;99.90
4856;DHT22;2442;48.676;7.986;2022-12-16T05:19:19;-2.70;99.90
4856;DHT22;2442;48.676;7.986;2022-12-16T05:22:03;-2.80;99.90
4856;DHT22;2442;48.676;7.986;2022-12-16T05:24:49;-2.80;99.90
4856;DHT22;2442;48.676;7.986;2022-12-16T05:27:34;-2.80;99.90
4856;DHT22;2442;48.676;7.986;2022-12-16T05:30:18;-2.80;99.90
4856;DHT22;2442;48.676;7.986;2022-12-16T05:33:02;-2.80;99.90
4856;DHT22;2442;48.676;7.986;2022-12-16T05:35:47;-2.80;99.90
4856;DHT22;2442;48.676;7.986;2022-12-16T05:38:31;-2.80;99.90
4856;DHT22;2442;48.676;7.986;2022-12-16T05:41:17;-2.80;99.90
4856;DHT22;2442;48.676;7.986;2022-12-16T05:44:01;-2.90;99.90
4856;DHT22;2442;48.676;7.986;2022-12-16T05:46:45;-2.90;99.90
4856;DHT22;2442;48.676;7.986;2022-12-16T05:49:30;-2.90;99.90
4856;DHT22;2442;48.676;7.986;2022-12-16T05:52:14;-3.00;99.90
4856;DHT22;2442;48.676;7.986;2022-12-16T05:54:58;-3.00;99.90
4856;DHT22;2442;48.676;7.986;2022-12-16T05:57:48;-3.00;99.90
4856;DHT22;2442;48.676;7.986;2022-12-16T06:00:32;-3.10;99.90
4856;DHT22;2442;48.676;7.986;2022-12-16T06:03:16;-3.10;99.90
4856;DHT22;2442;48.676;7.986;2022-12-16T06:06:01;-3.20;99.90
4856;DHT22;2442;48.676;7.986;2022-12-16T06:08:45;-3.20;99.90
4856;DHT22;2442;48.676;7.986;2022-12-16T06:11:26;-3.20;99.90
4856;DHT22;2442;48.676;7.986;2022-12-16T06:14:12;-3.30;99.90
4856;DHT22;2442;48.676;7.986;2022-12-16T06:16:56;-3.30;99.90
4856;DHT22;2442;48.676;7.986;2022-12-16T06:19:41;-3.50;99.90
4856;DHT22;2442;48.676;7.986;2022-12-16T06:22:25;-3.50;99.90
4856;DHT22;2442;48.676;7.986;2022-12-16T06:25:09;-3.50;99.90
4856;DHT22;2442;48.676;7.986;2022-12-16T06:27:54;-3.60;99.90
4856;DHT22;2442;48.676;7.986;2022-12-16T06:30:39;-3.70;99.90
4856;DHT22;2442;48.676;7.986;2022-12-16T06:33:24;-3.80;99.90
4856;DHT22;2442;48.676;7.986;2022-12-16T06:36:08;-3.90;99.90
4856;DHT22;2442;48.676;7.986;2022-12-16T06:38:53;-3.90;99.90
4856;DHT22;2442;48.676;7.986;2022-12-16T06:41:37;-4.00;99.90
4856;DHT22;2442;48.676;7.986;2022-12-16T06:44:21;-4.00;99.90
4856;DHT22;2442;48.676;7.986;2022-12-16T06:47:07;-4.10;99.90
4856;DHT22;2442;48.676;7.986;2022-12-16T06:49:51;-4.20;99.90
4856;DHT22;2442;48.676;7.986;2022-12-16T06:52:42;-4.20;99.90
4856;DHT22;2442;48.676;7.986;2022-12-16T06:55:26;-4.20;99.90
4856;DHT22;2442;48.676;7.986;2022-12-16T06:58:07;-4.30;99.90
4856;DHT22;2442;48.676;7.986;2022-12-16T07:00:51;-4.30;99.90
4856;DHT22;2442;48.676;7.986;2022-12-16T07:03:37;-4.50;99.90
4856;DHT22;2442;48.676;7.986;2022-12-16T07:06:22;-4.50;99.90
4856;DHT22;2442;48.676;7.986;2022-12-16T07:09:06;-4.60;99.90
4856;DHT22;2442;48.676;7.986;2022-12-16T07:11:50;-4.60;99.90
4856;DHT22;2442;48.676;7.986;2022-12-16T07:14:35;-4.70;99.90
4856;DHT22;2442;48.676;7.986;2022-12-16T07:17:19;-4.80;99.90
4856;DHT22;2442;48.676;7.986;2022-12-16T07:20:06;-4.80;99.90
4856;DHT22;2442;48.676;7.986;2022-12-16T07:22:51;-4.80;99.90
4856;DHT22;2442;48.676;7.986;2022-12-16T07:25:35;-4.90;99.90
4856;DHT22;2442;48.676;7.986;2022-12-16T07:28:20;-4.80;99.90
4856;DHT22;2442;48.676;7.986;2022-12-16T07:31:04;-4.90;99.90
4856;DHT22;2442;48.676;7.986;2022-12-16T07:33:49;-4.90;99.90
4856;DHT22;2442;48.676;7.986;2022-12-16T07:36:35;-4.90;99.90
4856;DHT22;2442;48.676;7.986;2022-12-16T07:39:19;-5.00;99.90
4856;DHT22;2442;48.676;7.986;2022-12-16T07:42:05;-5.00;99.90
4856;DHT22;2442;48.676;7.986;2022-12-16T07:44:50;-5.00;99.90
4856;DHT22;2442;48.676;7.986;2022-12-16T07:47:34;-5.10;99.90
4856;DHT22;2442;48.676;7.986;2022-12-16T07:50:18;-5.00;99.90
4856;DHT22;2442;48.676;7.986;2022-12-16T07:53:04;-5.10;99.90
4856;DHT22;2442;48.676;7.986;2022-12-16T07:55:49;-5.10;99.90
4856;DHT22;2442;48.676;7.986;2022-12-16T07:58:34;-5.00;99.90
4856;DHT22;2442;48.676;7.986;2022-12-16T08:01:18;-5.00;99.90
4856;DHT22;2442;48.676;7.986;2022-12-16T08:04:03;-4.90;99.90
4856;DHT22;2442;48.676;7.986;2022-12-16T08:06:47;-4.90;99.90
4856;DHT22;2442;48.676;7.986;2022-12-16T08:09:33;-4.90;99.90
4856;DHT22;2442;48.676;7.986;2022-12-16T08:12:18;-4.90;99.90
4856;DHT22;2442;48.676;7.986;2022-12-16T08:15:03;-4.90;99.90
4856;DHT22;2442;48.676;7.986;2022-12-16T08:17:48;-4.90;99.90
4856;DHT22;2442;48.676;7.986;2022-12-16T08:20:29;-4.90;99.90
4856;DHT22;2442;48.676;7.986;2022-12-16T08:23:14;-4.80;99.90
4856;DHT22;2442;48.676;7.986;2022-12-16T08:25:59;-4.70;99.90
4856;DHT22;2442;48.676;7.986;2022-12-16T08:28:44;-4.60;99.90
4856;DHT22;2442;48.676;7.986;2022-12-16T08:31:28;-4.60;99.90
4856;DHT22;2442;48.676;7.986;2022-12-16T08:34:28;-4.50;99.90
4856;DHT22;2442;48.676;7.986;2022-12-16T08:37:12;-4.50;99.90
4856;DHT22;2442;48.676;7.986;2022-12-16T08:39:56;-4.50;99.90
4856;DHT22;2442;48.676;7.986;2022-12-16T08:42:42;-4.50;99.90
4856;DHT22;2442;48.676;7.986;2022-12-16T08:45:27;-4.40;99.90
4856;DHT22;2442;48.676;7.986;2022-12-16T08:48:11;-4.40;99.90
4856;DHT22;2442;48.676;7.986;2022-12-16T08:50:59;-4.30;99.90
4856;DHT22;2442;48.676;7.986;2022-12-16T08:53:44;-4.20;99.90
4856;DHT22;2442;48.676;7.986;2022-12-16T08:56:28;-4.10;99.90
4856;DHT22;2442;48.676;7.986;2022-12-16T08:59:14;-4.10;99.90
4856;DHT22;2442;48.676;7.986;2022-12-16T09:01:59;-4.00;99.90
4856;DHT22;2442;48.676;7.986;2022-12-16T09:04:43;-3.90;99.90
4856;DHT22;2442;48.676;7.986;2022-12-16T09:07:42;-3.90;99.90
4856;DHT22;2442;48.676;7.986;2022-12-16T09:10:26;-3.80;99.90
4856;DHT22;2442;48.676;7.986;2022-12-16T09:13:12;-3.70;99.90
4856;DHT22;2442;48.676;7.986;2022-12-16T09:15:58;-3.60;99.90
4856;DHT22;2442;48.676;7.986;2022-12-16T09:18:43;-3.60;99.90
4856;DHT22;2442;48.676;7.986;2022-12-16T09:21:28;-3.60;99.90
4856;DHT22;2442;48.676;7.986;2022-12-16T09:24:13;-3.60;99.90
4856;DHT22;2442;48.676;7.986;2022-12-16T09:26:57;-3.60;99.90
4856;DHT22;2442;48.676;7.986;2022-12-16T09:29:42;-3.50;99.90
4856;DHT22;2442;48.676;7.986;2022-12-16T09:32:27;-3.40;99.90
4856;DHT22;2442;48.676;7.986;2022-12-16T09:35:11;-3.30;99.90
4856;DHT22;2442;48.676;7.986;2022-12-16T09:37:56;-3.20;99.90
4856;DHT22;2442;48.676;7.986;2022-12-16T09:40:41;-3.10;99.90
4856;DHT22;2442;48.676;7.986;2022-12-16T09:43:42;-3.10;99.90
4856;DHT22;2442;48.676;7.986;2022-12-16T09:46:35;-3.10;99.90
4856;DHT22;2442;48.676;7.986;2022-12-16T09:49:32;-3.00;99.90
4856;DHT22;2442;48.676;7.986;2022-12-16T09:52:20;-3.00;99.90
4856;DHT22;2442;48.676;7.986;2022-12-16T09:55:16;-2.90;99.90
4856;DHT22;2442;48.676;7.986;2022-12-16T09:58:03;-2.80;99.90
4856;DHT22;2442;48.676;7.986;2022-12-16T10:00:48;-2.80;99.90
4856;DHT22;2442;48.676;7.986;2022-12-16T10:03:35;-2.80;99.90
4856;DHT22;2442;48.676;7.986;2022-12-16T10:06:31;-2.60;99.90
4856;DHT22;2442;48.676;7.986;2022-12-16T10:09:25;-2.70;99.90
4856;DHT22;2442;48.676;7.986;2022-12-16T10:12:18;-2.70;99.90
4856;DHT22;2442;48.676;7.986;2022-12-16T10:15:17;-2.60;99.90
4856;DHT22;2442;48.676;7.986;2022-12-16T10:18:15;-2.60;99.90
4856;DHT22;2442;48.676;7.986;2022-12-16T10:21:03;-2.50;99.90
4856;DHT22;2442;48.676;7.986;2022-12-16T10:23:56;-2.60;99.90
4856;DHT22;2442;48.676;7.986;2022-12-16T10:26:50;-2.60;99.90
4856;DHT22;2442;48.676;7.986;2022-12-16T10:29:39;-2.60;99.90
4856;DHT22;2442;48.676;7.986;2022-12-16T10:32:29;-2.60;99.90
4856;DHT22;2442;48.676;7.986;2022-12-16T10:35:19;-2.60;99.90
4856;DHT22;2442;48.676;7.986;2022-12-16T10:38:11;-2.60;99.90
4856;DHT22;2442;48.676;7.986;2022-12-16T10:40:59;-2.50;99.90
4856;DHT22;2442;48.676;7.986;2022-12-16T10:43:46;-2.50;99.90
4856;DHT22;2442;48.676;7.986;2022-12-16T10:46:33;-2.50;99.90
4856;DHT22;2442;48.676;7.986;2022-12-16T10:49:19;-2.50;99.90
4856;DHT22;2442;48.676;7.986;2022-12-16T10:52:04;-2.50;99.90
4856;DHT22;2442;48.676;7.986;2022-12-16T10:54:56;-2.40;99.90
4856;DHT22;2442;48.676;7.986;2022-12-16T10:57:54;-2.30;99.90
4856;DHT22;2442;48.676;7.986;2022-12-16T11:00:44;-2.10;99.90
4856;DHT22;2442;48.676;7.986;2022-12-16T11:03:30;-2.20;99.90
4856;DHT22;2442;48.676;7.986;2022-12-16T11:06:18;-2.00;99.90
4856;DHT22;2442;48.676;7.986;2022-12-16T11:09:15;-1.90;99.90
4856;DHT22;2442;48.676;7.986;2022-12-16T11:12:13;-1.80;99.90
4856;DHT22;2442;48.676;7.986;2022-12-16T11:15:11;-1.70;99.90
4856;DHT22;2442;48.676;7.986;2022-12-16T11:18:00;-1.40;99.90
4856;DHT22;2442;48.676;7.986;2022-12-16T11:20:45;-1.60;99.90
4856;DHT22;2442;48.676;7.986;2022-12-16T11:23:46;-1.60;99.90
4856;DHT22;2442;48.676;7.986;2022-12-16T11:26:31;-1.50;99.90
4856;DHT22;2442;48.676;7.986;2022-12-16T11:29:16;-1.60;99.90
4856;DHT22;2442;48.676;7.986;2022-12-16T11:32:13;-1.60;99.90
4856;DHT22;2442;48.676;7.986;2022-12-16T11:35:02;-1.70;99.90
4856;DHT22;2442;48.676;7.986;2022-12-16T11:37:49;-1.60;99.90
4856;DHT22;2442;48.676;7.986;2022-12-16T11:40:44;-1.40;99.90
4856;DHT22;2442;48.676;7.986;2022-12-16T11:43:29;-1.60;99.90
4856;DHT22;2442;48.676;7.986;2022-12-16T11:46:20;-1.60;99.90
4856;DHT22;2442;48.676;7.986;2022-12-16T11:49:17;-1.40;99.90
4856;DHT22;2442;48.676;7.986;2022-12-16T11:52:04;-1.30;99.90
4856;DHT22;2442;48.676;7.986;2022-12-16T11:54:53;-1.30;99.90
4856;DHT22;2442;48.676;7.986;2022-12-16T11:57:46;-1.10;99.90
4856;DHT22;2442;48.676;7.986;2022-12-16T12:00:35;-1.20;99.90
4856;DHT22;2442;48.676;7.986;2022-12-16T12:03:27;-1.30;99.90
4856;DHT22;2442;48.676;7.986;2022-12-16T12:06:22;-1.30;99.90
4856;DHT22;2442;48.676;7.986;2022-12-16T12:09:13;-1.50;99.90
4856;DHT22;2442;48.676;7.986;2022-12-16T12:12:09;-1.50;99.90
4856;DHT22;2442;48.676;7.986;2022-12-16T12:15:01;-1.50;99.90
4856;DHT22;2442;48.676;7.986;2022-12-16T12:17:55;-1.40;99.90
4856;DHT22;2442;48.676;7.986;2022-12-16T12:20:48;-1.60;99.90
4856;DHT22;2442;48.676;7.986;2022-12-16T12:23:39;-1.60;99.90
4856;DHT22;2442;48.676;7.986;2022-12-16T12:26:30;-1.50;99.90
4856;DHT22;2442;48.676;7.986;2022-12-16T12:29:21;-1.50;99.90
4856;DHT22;2442;48.676;7.986;2022-12-16T12:32:18;-1.50;99.90
4856;DHT22;2442;48.676;7.986;2022-12-16T12:35:16;-1.40;99.90
4856;DHT22;2442;48.676;7.986;2022-12-16T12:38:10;-1.30;99.90
4856;DHT22;2442;48.676;7.986;2022-12-16T12:41:01;-1.40;99.90
4856;DHT22;2442;48.676;7.986;2022-12-16T12:43:53;-1.30;99.90
4856;DHT22;2442;48.676;7.986;2022-12-16T12:46:42;-1.20;99.90
4856;DHT22;2442;48.676;7.986;2022-12-16T12:49:31;-1.10;99.90
4856;DHT22;2442;48.676;7.986;2022-12-16T12:52:27;-1.10;99.90
4856;DHT22;2442;48.676;7.986;2022-12-16T12:55:22;-1.20;99.90
4856;DHT22;2442;48.676;7.986;2022-12-16T12:58:12;-1.20;99.90
4856;DHT22;2442;48.676;7.986;2022-12-16T13:00:58;-1.20;99.90
4856;DHT22;2442;48.676;7.986;2022-12-16T13:03:47;-1.20;99.90
4856;DHT22;2442;48.676;7.986;2022-12-16T13:06:34;-1.20;99.90
4856;DHT22;2442;48.676;7.986;2022-12-16T13:09:28;-1.30;99.90
4856;DHT22;2442;48.676;7.986;2022-12-16T13:12:25;-1.30;99.90
4856;DHT22;2442;48.676;7.986;2022-12-16T13:15:19;-1.20;99.90
4856;DHT22;2442;48.676;7.986;2022-12-16T13:18:28;-1.20;99.90
4856;DHT22;2442;48.676;7.986;2022-12-16T13:21:41;-1.20;99.90
4856;DHT22;2442;48.676;7.986;2022-12-16T13:24:43;-1.10;99.90
4856;DHT22;2442;48.676;7.986;2022-12-16T13:27:43;-1.20;99.90
4856;DHT22;2442;48.676;7.986;2022-12-16T13:30:30;-1.20;99.90
4856;DHT22;2442;48.676;7.986;2022-12-16T13:33:24;-1.20;99.90
4856;DHT22;2442;48.676;7.986;2022-12-16T13:36:11;-1.10;99.90
4856;DHT22;2442;48.676;7.986;2022-12-16T13:38:58;-1.10;99.90
4856;DHT22;2442;48.676;7.986;2022-12-16T13:41:50;-1.10;99.90
4856;DHT22;2442;48.676;7.986;2022-12-16T13:44:54;-1.10;99.90
4856;DHT22;2442;48.676;7.986;2022-12-16T13:47:58;-1.10;99.90
4856;DHT22;2442;48.676;7.986;2022-12-16T13:50:44;-1.10;99.90
4856;DHT22;2442;48.676;7.986;2022-12-16T13:53:31;-1.00;99.90
4856;DHT22;2442;48.676;7.986;2022-12-16T13:56:22;-1.10;99.90
4856;DHT22;2442;48.676;7.986;2022-12-16T13:59:16;-1.10;99.90
4856;DHT22;2442;48.676;7.986;2022-12-16T14:02:11;-1.10;99.90
4856;DHT22;2442;48.676;7.986;2022-12-16T14:04:59;-1.10;99.90
4856;DHT22;2442;48.676;7.986;2022-12-16T14:07:44;-1.10;99.90
4856;DHT22;2442;48.676;7.986;2022-12-16T14:10:30;-1.00;99.90
4856;DHT22;2442;48.676;7.986;2022-12-16T14:13:20;-1.10;99.90
4856;DHT22;2442;48.676;7.986;2022-12-16T14:16:10;-1.10;99.90
4856;DHT22;2442;48.676;7.986;2022-12-16T14:19:12;-1.00;99.90
4856;DHT22;2442;48.676;7.986;2022-12-16T14:22:15;-0.90;99.90
4856;DHT22;2442;48.676;7.986;2022-12-16T14:25:06;-1.00;99.90
4856;DHT22;2442;48.676;7.986;2022-12-16T14:27:51;-1.10;99.90
4856;DHT22;2442;48.676;7.986;2022-12-16T14:30:36;-1.10;99.90
4856;DHT22;2442;48.676;7.986;2022-12-16T14:33:23;-1.10;99.90
4856;DHT22;2442;48.676;7.986;2022-12-16T14:36:23;-1.20;99.90
4856;DHT22;2442;48.676;7.986;2022-12-16T14:39:18;-1.20;99.90
4856;DHT22;2442;48.676;7.986;2022-12-16T14:42:04;-1.20;99.90
4856;DHT22;2442;48.676;7.986;2022-12-16T14:44:48;-1.10;99.90
4856;DHT22;2442;48.676;7.986;2022-12-16T14:47:38;-1.00;99.90
4856;DHT22;2442;48.676;7.986;2022-12-16T14:50:26;-1.00;99.90
4856;DHT22;2442;48.676;7.986;2022-12-16T14:53:16;-0.90;99.90
4856;DHT22;2442;48.676;7.986;2022-12-16T14:56:17;-1.00;99.90
4856;DHT22;2442;48.676;7.986;2022-12-16T14:59:15;-1.00;99.90
4856;DHT22;2442;48.676;7.986;2022-12-16T15:02:11;-1.00;99.90
4856;DHT22;2442;48.676;7.986;2022-12-16T15:04:58;-0.90;99.90
4856;DHT22;2442;48.676;7.986;2022-12-16T15:07:43;-0.90;99.90
4856;DHT22;2442;48.676;7.986;2022-12-16T15:10:28;-1.00;99.90
4856;DHT22;2442;48.676;7.986;2022-12-16T15:13:16;-1.00;99.90
4856;DHT22;2442;48.676;7.986;2022-12-16T15:16:02;-1.10;99.90
4856;DHT22;2442;48.676;7.986;2022-12-16T15:18:56;-1.10;99.90
4856;DHT22;2442;48.676;7.986;2022-12-16T15:21:42;-1.30;99.90
4856;DHT22;2442;48.676;7.986;2022-12-16T15:24:28;-1.30;99.90
4856;DHT22;2442;48.676;7.986;2022-12-16T15:27:23;-1.30;99.90
4856;DHT22;2442;48.676;7.986;2022-12-16T15:30:38;-1.40;99.90
4856;DHT22;2442;48.676;7.986;2022-12-16T15:33:26;-1.40;99.90
4856;DHT22;2442;48.676;7.986;2022-12-16T15:36:23;-1.40;99.90
4856;DHT22;2442;48.676;7.986;2022-12-16T15:39:09;-1.50;99.90
4856;DHT22;2442;48.676;7.986;2022-12-16T15:41:53;-1.60;99.90
4856;DHT22;2442;48.676;7.986;2022-12-16T15:44:46;-1.60;99.90
4856;DHT22;2442;48.676;7.986;2022-12-16T15:47:34;-1.40;99.90
4856;DHT22;2442;48.676;7.986;2022-12-16T15:50:21;-1.60;99.90
4856;DHT22;2442;48.676;7.986;2022-12-16T15:53:27;-1.60;99.90
4856;DHT22;2442;48.676;7.986;2022-12-16T15:56:22;-1.70;99.90
4856;DHT22;2442;48.676;7.986;2022-12-16T15:59:23;-1.80;99.90
4856;DHT22;2442;48.676;7.986;2022-12-16T16:02:15;-1.80;99.90
4856;DHT22;2442;48.676;7.986;2022-12-16T16:05:06;-1.70;99.90
4856;DHT22;2442;48.676;7.986;2022-12-16T16:07:51;-1.70;99.90
4856;DHT22;2442;48.676;7.986;2022-12-16T16:10:36;-1.50;99.90
4856;DHT22;2442;48.676;7.986;2022-12-16T16:13:20;-1.60;99.90
4856;DHT22;2442;48.676;7.986;2022-12-16T16:16:07;-1.80;99.90
4856;DHT22;2442;48.676;7.986;2022-12-16T16:18:52;-2.00;99.90
4856;DHT22;2442;48.676;7.986;2022-12-16T16:21:43;-2.10;99.90
4856;DHT22;2442;48.676;7.986;2022-12-16T16:24:28;-2.10;99.90
4856;DHT22;2442;48.676;7.986;2022-12-16T16:27:13;-2.50;99.90
4856;DHT22;2442;48.676;7.986;2022-12-16T16:29:59;-2.50;99.90
4856;DHT22;2442;48.676;7.986;2022-12-16T16:32:44;-2.60;99.90
4856;DHT22;2442;48.676;7.986;2022-12-16T16:35:30;-2.80;99.90
4856;DHT22;2442;48.676;7.986;2022-12-16T16:38:16;-2.80;99.90
4856;DHT22;2442;48.676;7.986;2022-12-16T16:41:00;-2.90;99.90
4856;DHT22;2442;48.676;7.986;2022-12-16T16:43:44;-2.90;99.90
4856;DHT22;2442;48.676;7.986;2022-12-16T16:46:31;-2.90;99.90
4856;DHT22;2442;48.676;7.986;2022-12-16T16:49:21;-3.00;99.90
4856;DHT22;2442;48.676;7.986;2022-12-16T16:52:13;-3.00;99.90
4856;DHT22;2442;48.676;7.986;2022-12-16T16:54:59;-3.10;99.90
4856;DHT22;2442;48.676;7.986;2022-12-16T16:57:44;-3.10;99.90
4856;DHT22;2442;48.676;7.986;2022-12-16T17:00:29;-2.80;99.90
4856;DHT22;2442;48.676;7.986;2022-12-16T17:03:13;-3.00;99.90
4856;DHT22;2442;48.676;7.986;2022-12-16T17:05:58;-3.00;99.90
4856;DHT22;2442;48.676;7.986;2022-12-16T17:08:42;-3.20;99.90
4856;DHT22;2442;48.676;7.986;2022-12-16T17:11:28;-3.30;99.90
4856;DHT22;2442;48.676;7.986;2022-12-16T17:14:15;-3.50;99.90
4856;DHT22;2442;48.676;7.986;2022-12-16T17:17:00;-3.70;99.90
4856;DHT22;2442;48.676;7.986;2022-12-16T17:19:45;-3.80;99.90
4856;DHT22;2442;48.676;7.986;2022-12-16T17:22:29;-3.90;99.90
4856;DHT22;2442;48.676;7.986;2022-12-16T17:25:14;-4.00;99.90
4856;DHT22;2442;48.676;7.986;2022-12-16T17:28:00;-3.80;99.90
4856;DHT22;2442;48.676;7.986;2022-12-16T17:30:45;-3.90;99.90
4856;DHT22;2442;48.676;7.986;2022-12-16T17:33:29;-4.00;99.90
4856;DHT22;2442;48.676;7.986;2022-12-16T17:36:15;-3.90;99.90
4856;DHT22;2442;48.676;7.986;2022-12-16T17:39:00;-4.00;99.90
4856;DHT22;2442;48.676;7.986;2022-12-16T17:41:44;-4.20;99.90
4856;DHT22;2442;48.676;7.986;2022-12-16T17:44:30;-4.30;99.90
4856;DHT22;2442;48.676;7.986;2022-12-16T17:47:15;-4.40;99.90